Maya — WDJ7045 — position and weather

sailwx.info

Track history (hours):
 
Tides and Currents Weather Stations Pressure Air Temp Water Temp Dewpoint Dewpoint Depression Visibility Wind Speed Wind Dir Waves Ship Positions

Maya

Owner: Evans, William W, Costa Mesa, CA. More information available from US FCC via Universal Licensing System and Coast Guard Vessel Documentation Center.

Last reported at 2017-Nov-18 20:46 UTC. Time now 2018-Jan-18 07:57 UTC.
Position N 33°43' W 118°16'.
Warning: this ship's position is months out of date.

Length 14 m; draft 2 m.

Type: Sailing vessel. MMSI: 368002720.

Date/timePositionNaut miles runAvg speedWind from/ knotsBaromVisibWave heightAir tempDewpointWater temp
2017-Nov-18 20:46N 33°43' W 118°16'2 5.7
2017-Nov-18 20:30N 33°42' W 118°15'11 6.3
2017-Nov-18 18:41N 33°39' W 118°28'1 6.9
2017-Nov-18 18:30N 33°39' W 118°30'3 6.7
2017-Nov-18 17:59N 33°39' W 118°34'3 6.4
2017-Nov-18 17:30N 33°40' W 118°37'3 6.3
2017-Nov-18 17:00N 33°40' W 118°41'3 6.2
2017-Nov-18 16:30N 33°40' W 118°45'3 6.2
2017-Nov-18 16:00N 33°40' W 118°49'3 6.4
2017-Nov-18 15:30N 33°40' W 118°53'3 6.3
2017-Nov-18 15:00N 33°39' W 118°56'3 6.4
2017-Nov-18 14:30N 33°38' W 119°00'3 6.2
2017-Nov-18 14:00N 33°38' W 119°04'3 5.9
2017-Nov-18 13:30N 33°36' W 119°07'3 5.9
2017-Nov-18 13:00N 33°34' W 119°08'3 6.1
2017-Nov-18 12:30N 33°31' W 119°10'3 5.8
2017-Nov-18 12:00N 33°28' W 119°10'3 6.0
2017-Nov-18 11:30N 33°25' W 119°09'3 5.5
2017-Nov-18 11:00N 33°22' W 119°09'3 5.2
2017-Nov-18 10:30N 33°20' W 119°09'3 5.0
2017-Nov-18 10:00N 33°17' W 119°09'1 2.6
2017-Nov-18 09:30N 33°16' W 119°10'3 5.1
2017-Nov-18 09:00N 33°14' W 119°12'1 2.0
2017-Nov-18 08:30N 33°15' W 119°11'3 5.7
2017-Nov-18 08:00N 33°16' W 119°08'3 5.8
2017-Nov-18 07:30N 33°18' W 119°06'3 5.8
2017-Nov-18 07:00N 33°20' W 119°03'3 5.3
2017-Nov-18 06:30N 33°22' W 119°00'3 5.4
2017-Nov-18 05:59N 33°23' W 118°58'3 5.6
2017-Nov-18 05:30N 33°25' W 118°55'3 5.6
2017-Nov-18 05:00N 33°26' W 118°52'3 5.7
2017-Nov-18 04:30N 33°28' W 118°50'3 5.4
2017-Nov-18 04:00N 33°29' W 118°47'3 5.4
2017-Nov-18 03:30N 33°31' W 118°44'2 4.9
2017-Nov-18 03:00N 33°32' W 118°42'3 5.4
2017-Nov-18 02:28N 33°33' W 118°38'20 5.5
2017-Nov-17 22:52N 33°41' W 118°16'  
Track history (hours):
 
Tides and Currents Weather Stations Pressure Air Temp Water Temp Dewpoint Dewpoint Depression Visibility Wind Speed Wind Dir Waves Ship Positions

Maya

Owner: Evans, William W, Costa Mesa, CA. More information available from US FCC via Universal Licensing System and Coast Guard Vessel Documentation Center.

Last reported at 2017-Nov-18 20:46 UTC. Time now 2018-Jan-18 07:57 UTC.
Position N 33°43' W 118°16'.
Warning: this ship's position is months out of date.

Length 14 m; draft 2 m.

Type: Sailing vessel. MMSI: 368002720.

Date/timePositionNaut miles runAvg speedWind from/ knotsBaromVisibWave heightAir tempDewpointWater temp
2017-Nov-18 20:46N 33°43' W 118°16'2 5.7
2017-Nov-18 20:30N 33°42' W 118°15'11 6.3
2017-Nov-18 18:41N 33°39' W 118°28'1 6.9
2017-Nov-18 18:30N 33°39' W 118°30'3 6.7
2017-Nov-18 17:59N 33°39' W 118°34'3 6.4
2017-Nov-18 17:30N 33°40' W 118°37'3 6.3
2017-Nov-18 17:00N 33°40' W 118°41'3 6.2
2017-Nov-18 16:30N 33°40' W 118°45'3 6.2
2017-Nov-18 16:00N 33°40' W 118°49'3 6.4
2017-Nov-18 15:30N 33°40' W 118°53'3 6.3
2017-Nov-18 15:00N 33°39' W 118°56'3 6.4
2017-Nov-18 14:30N 33°38' W 119°00'3 6.2
2017-Nov-18 14:00N 33°38' W 119°04'3 5.9
2017-Nov-18 13:30N 33°36' W 119°07'3 5.9
2017-Nov-18 13:00N 33°34' W 119°08'3 6.1
2017-Nov-18 12:30N 33°31' W 119°10'3 5.8
2017-Nov-18 12:00N 33°28' W 119°10'3 6.0
2017-Nov-18 11:30N 33°25' W 119°09'3 5.5
2017-Nov-18 11:00N 33°22' W 119°09'3 5.2
2017-Nov-18 10:30N 33°20' W 119°09'3 5.0
2017-Nov-18 10:00N 33°17' W 119°09'1 2.6
2017-Nov-18 09:30N 33°16' W 119°10'3 5.1
2017-Nov-18 09:00N 33°14' W 119°12'1 2.0
2017-Nov-18 08:30N 33°15' W 119°11'3 5.7
2017-Nov-18 08:00N 33°16' W 119°08'3 5.8
2017-Nov-18 07:30N 33°18' W 119°06'3 5.8
2017-Nov-18 07:00N 33°20' W 119°03'3 5.3
2017-Nov-18 06:30N 33°22' W 119°00'3 5.4
2017-Nov-18 05:59N 33°23' W 118°58'3 5.6
2017-Nov-18 05:30N 33°25' W 118°55'3 5.6
2017-Nov-18 05:00N 33°26' W 118°52'3 5.7
2017-Nov-18 04:30N 33°28' W 118°50'3 5.4
2017-Nov-18 04:00N 33°29' W 118°47'3 5.4
2017-Nov-18 03:30N 33°31' W 118°44'2 4.9
2017-Nov-18 03:00N 33°32' W 118°42'3 5.4
2017-Nov-18 02:28N 33°33' W 118°38'20 5.5
2017-Nov-17 22:52N 33°41' W 118°16'  

Dump ship's entire track history